createdAt,value
2022-12-19T00:00:31.703Z,1024.03
2022-12-19T00:01:31.711Z,1024.01
2022-12-19T00:02:31.720Z,1023.94
2022-12-19T00:03:31.785Z,1023.95
2022-12-19T00:04:31.653Z,1023.98
2022-12-19T00:05:31.613Z,1023.91
2022-12-19T00:06:31.612Z,1023.91
2022-12-19T00:07:31.591Z,1023.87
2022-12-19T00:08:31.593Z,1023.89
2022-12-19T00:09:31.574Z,1023.84
2022-12-19T00:10:31.592Z,1023.78
2022-12-19T00:11:31.543Z,1023.78
2022-12-19T00:12:31.544Z,1023.77
2022-12-19T00:13:31.747Z,1023.77
2022-12-19T00:14:32.523Z,1023.74
2022-12-19T00:15:31.502Z,1023.78
2022-12-19T00:16:31.726Z,1023.76
2022-12-19T00:17:31.473Z,1023.76
2022-12-19T00:18:31.479Z,1023.79
2022-12-19T00:19:31.449Z,1023.71
2022-12-19T00:20:31.472Z,1023.71
2022-12-19T00:21:31.424Z,1023.68
2022-12-19T00:22:31.420Z,1023.69
2022-12-19T00:23:31.393Z,1023.61
2022-12-19T00:24:31.392Z,1023.62
2022-12-19T00:25:31.383Z,1023.65
2022-12-19T00:26:31.382Z,1023.64
2022-12-19T00:27:31.352Z,1023.61
2022-12-19T00:28:31.362Z,1023.61
2022-12-19T00:29:31.330Z,1023.61
2022-12-19T00:30:31.341Z,1023.51
2022-12-19T00:31:31.341Z,1023.57
2022-12-19T00:32:31.299Z,1023.51
2022-12-19T00:33:31.289Z,1023.44
2022-12-19T00:34:31.267Z,1023.51
2022-12-19T00:35:31.242Z,1023.53
2022-12-19T00:36:31.239Z,1023.48
2022-12-19T00:37:31.232Z,1023.47
2022-12-19T00:38:31.218Z,1023.43
2022-12-19T00:39:31.198Z,1023.51
2022-12-19T00:40:31.210Z,1023.48
2022-12-19T00:41:31.180Z,1023.51
2022-12-19T00:42:31.193Z,1023.52
2022-12-19T00:43:31.157Z,1023.51
2022-12-19T00:44:31.153Z,1023.50
2022-12-19T00:45:31.184Z,1023.51
2022-12-19T00:46:31.138Z,1023.44
2022-12-19T00:47:31.110Z,1023.46
2022-12-19T00:48:31.097Z,1023.54
2022-12-19T00:49:31.067Z,1023.53
2022-12-19T00:50:31.135Z,1023.54
2022-12-19T00:51:31.047Z,1023.57
2022-12-19T00:52:31.057Z,1023.55
2022-12-19T00:53:31.026Z,1023.57
2022-12-19T00:54:31.065Z,1023.57
2022-12-19T00:55:30.999Z,1023.62
2022-12-19T00:56:31.009Z,1023.64
2022-12-19T00:57:30.989Z,1023.63
2022-12-19T00:58:35.158Z,1023.60
2022-12-19T00:59:30.959Z,1023.54
2022-12-19T01:00:30.959Z,1023.61
2022-12-19T01:01:31.041Z,1023.62
2022-12-19T01:02:31.075Z,1023.70
2022-12-19T01:03:30.906Z,1023.67
2022-12-19T01:04:34.373Z,1023.64
2022-12-19T01:05:31.878Z,1023.57
2022-12-19T01:06:30.879Z,1023.49
2022-12-19T01:07:30.858Z,1023.50
2022-12-19T01:08:30.872Z,1023.52
2022-12-19T01:09:30.852Z,1023.59
2022-12-19T01:10:30.838Z,1023.63
2022-12-19T01:11:30.816Z,1023.67
2022-12-19T01:12:30.857Z,1023.70
2022-12-19T01:13:30.779Z,1023.69
2022-12-19T01:14:30.785Z,1023.66
2022-12-19T01:15:30.760Z,1023.56
2022-12-19T01:16:30.783Z,1023.45
2022-12-19T01:17:30.729Z,1023.43
2022-12-19T01:18:30.745Z,1023.40
2022-12-19T01:19:30.704Z,1023.35
2022-12-19T01:20:30.707Z,1023.21
2022-12-19T01:21:30.688Z,1023.10
2022-12-19T01:22:30.688Z,1023.12
2022-12-19T01:23:30.676Z,1023.01
2022-12-19T01:24:30.663Z,1023.07
2022-12-19T01:25:30.645Z,1022.95
2022-12-19T01:26:30.635Z,1023.02
2022-12-19T01:27:30.608Z,1022.98
2022-12-19T01:28:30.606Z,1022.99
2022-12-19T01:29:30.593Z,1022.98
2022-12-19T01:30:30.737Z,1023.04
2022-12-19T01:31:30.608Z,1022.94
2022-12-19T01:32:30.553Z,1022.96
2022-12-19T01:33:30.535Z,1022.93
2022-12-19T01:34:30.524Z,1022.97
2022-12-19T01:35:30.533Z,1023.01
2022-12-19T01:36:30.515Z,1022.92
2022-12-19T01:37:30.485Z,1022.89
2022-12-19T01:38:30.493Z,1022.91
2022-12-19T01:39:30.474Z,1022.85
2022-12-19T01:40:30.465Z,1022.86
2022-12-19T01:41:30.434Z,1022.75
2022-12-19T01:42:30.443Z,1022.79
2022-12-19T01:43:30.414Z,1022.74
2022-12-19T01:44:30.400Z,1022.72
2022-12-19T01:45:34.482Z,1022.66
2022-12-19T01:46:31.445Z,1022.67
2022-12-19T01:47:30.362Z,1022.66
2022-12-19T01:48:30.352Z,1022.62
2022-12-19T01:49:30.371Z,1022.59
2022-12-19T01:50:30.323Z,1022.43
2022-12-19T01:51:30.313Z,1022.50
2022-12-19T01:52:30.315Z,1022.39
2022-12-19T01:53:30.283Z,1022.48
2022-12-19T01:54:30.303Z,1022.43
2022-12-19T01:55:30.263Z,1022.41
2022-12-19T01:56:30.250Z,1022.33
2022-12-19T01:57:30.211Z,1022.37
2022-12-19T01:58:30.210Z,1022.40
2022-12-19T01:59:30.219Z,1022.28
2022-12-19T02:00:30.182Z,1022.26
2022-12-19T02:01:30.307Z,1022.28
2022-12-19T02:02:30.241Z,1022.26
2022-12-19T02:03:30.129Z,1022.18
2022-12-19T02:04:32.329Z,1022.19
2022-12-19T02:05:30.134Z,1022.16
2022-12-19T02:06:30.109Z,1022.14
2022-12-19T02:07:30.100Z,1022.11
2022-12-19T02:08:30.071Z,1022.14
2022-12-19T02:09:30.070Z,1022.10
2022-12-19T02:10:30.071Z,1022.03
2022-12-19T02:11:30.057Z,1022.03
2022-12-19T02:12:30.031Z,1022.00
2022-12-19T02:13:30.027Z,1021.93
2022-12-19T02:14:30.013Z,1021.99
2022-12-19T02:15:30.021Z,1021.99
2022-12-19T02:16:30.240Z,1021.96
2022-12-19T02:17:29.962Z,1021.98
2022-12-19T02:18:29.975Z,1021.93
2022-12-19T02:19:29.953Z,1021.92
2022-12-19T02:20:30.109Z,1021.84
2022-12-19T02:21:29.929Z,1021.90
2022-12-19T02:22:29.892Z,1021.91
2022-12-19T02:23:29.891Z,1021.89
2022-12-19T02:24:30.298Z,1021.89
2022-12-19T02:25:29.876Z,1021.83
2022-12-19T02:26:29.867Z,1021.82
2022-12-19T02:27:29.868Z,1021.84
2022-12-19T02:28:29.837Z,1021.81
2022-12-19T02:29:29.828Z,1021.85
2022-12-19T02:30:29.808Z,1021.75
2022-12-19T02:31:29.855Z,1021.72
2022-12-19T02:32:29.785Z,1021.69
2022-12-19T02:33:29.788Z,1021.69
2022-12-19T02:34:29.752Z,1021.75
2022-12-19T02:35:29.765Z,1021.65
2022-12-19T02:36:29.737Z,1021.71
2022-12-19T02:37:29.735Z,1021.67
2022-12-19T02:38:29.717Z,1021.70
2022-12-19T02:39:29.735Z,1021.79
2022-12-19T02:40:29.683Z,1021.85
2022-12-19T02:41:29.704Z,1021.85
2022-12-19T02:42:30.603Z,1021.88
2022-12-19T02:43:29.670Z,1021.82
2022-12-19T02:44:29.641Z,1021.85
2022-12-19T02:45:29.636Z,1021.84
2022-12-19T02:46:29.636Z,1021.83
2022-12-19T02:47:29.627Z,1021.85
2022-12-19T02:48:29.603Z,1021.83
2022-12-19T02:49:30.976Z,1021.73
2022-12-19T02:50:29.575Z,1021.75
2022-12-19T02:51:29.572Z,1021.74
2022-12-19T02:52:29.557Z,1021.73
2022-12-19T02:53:29.550Z,1021.73
2022-12-19T02:54:29.552Z,1021.75
2022-12-19T02:55:29.508Z,1021.73
2022-12-19T02:56:29.490Z,1021.73
2022-12-19T02:57:29.496Z,1021.77
2022-12-19T02:58:29.481Z,1021.75
2022-12-19T02:59:29.501Z,1021.77
2022-12-19T03:00:29.443Z,1021.74
2022-12-19T03:01:29.574Z,1021.72
2022-12-19T03:02:29.564Z,1021.71
2022-12-19T03:03:29.475Z,1021.75
2022-12-19T03:04:29.464Z,1021.73
2022-12-19T03:05:29.462Z,1021.69
2022-12-19T03:06:29.371Z,1021.71
2022-12-19T03:07:29.391Z,1021.63
2022-12-19T03:08:29.356Z,1021.70
2022-12-19T03:09:29.415Z,1021.69
2022-12-19T03:10:29.344Z,1021.68
2022-12-19T03:11:29.349Z,1021.69
2022-12-19T03:12:29.304Z,1021.66
2022-12-19T03:13:29.295Z,1021.66
2022-12-19T03:14:29.295Z,1021.68
2022-12-19T03:15:29.284Z,1021.69
2022-12-19T03:16:29.303Z,1021.72
2022-12-19T03:17:29.255Z,1021.71
2022-12-19T03:18:29.236Z,1021.67
2022-12-19T03:19:29.241Z,1021.78
2022-12-19T03:20:29.237Z,1021.68
2022-12-19T03:21:29.223Z,1021.69
2022-12-19T03:22:29.205Z,1021.60
2022-12-19T03:23:29.191Z,1021.58
2022-12-19T03:24:29.176Z,1021.54
2022-12-19T03:25:29.158Z,1021.53
2022-12-19T03:26:29.158Z,1021.54
2022-12-19T03:27:29.138Z,1021.60
2022-12-19T03:28:29.116Z,1021.55
2022-12-19T03:29:29.109Z,1021.57
2022-12-19T03:30:29.110Z,1021.58
2022-12-19T03:31:29.096Z,1021.55
2022-12-19T03:32:29.077Z,1021.52
2022-12-19T03:33:29.058Z,1021.59
2022-12-19T03:34:29.039Z,1021.58
2022-12-19T03:35:29.042Z,1021.56
2022-12-19T03:36:29.025Z,1021.56
2022-12-19T03:37:29.034Z,1021.53
2022-12-19T03:38:28.998Z,1021.55
2022-12-19T03:39:28.993Z,1021.51
2022-12-19T03:40:29.054Z,1021.51
2022-12-19T03:41:28.971Z,1021.52
2022-12-19T03:42:28.976Z,1021.54
2022-12-19T03:43:28.950Z,1021.47
2022-12-19T03:44:28.919Z,1021.51
2022-12-19T03:45:29.881Z,1021.45
2022-12-19T03:46:28.980Z,1021.47
2022-12-19T03:47:28.910Z,1021.44
2022-12-19T03:48:28.871Z,1021.52
2022-12-19T03:49:28.871Z,1021.46
2022-12-19T03:50:28.850Z,1021.45
2022-12-19T03:51:28.844Z,1021.46
2022-12-19T03:52:28.842Z,1021.44
2022-12-19T03:53:28.843Z,1021.41
2022-12-19T03:54:28.830Z,1021.49
2022-12-19T03:55:28.803Z,1021.48
2022-12-19T03:56:28.793Z,1021.47
2022-12-19T03:57:28.797Z,1021.48
2022-12-19T03:58:28.783Z,1021.51
2022-12-19T03:59:28.753Z,1021.51
2022-12-19T04:00:28.747Z,1021.46
2022-12-19T04:01:28.833Z,1021.48
2022-12-19T04:02:28.832Z,1021.53
2022-12-19T04:03:28.726Z,1021.52
2022-12-19T04:04:28.697Z,1021.58
2022-12-19T04:05:28.705Z,1021.53
2022-12-19T04:06:28.650Z,1021.49
2022-12-19T04:07:28.665Z,1021.54
2022-12-19T04:08:28.640Z,1021.47
2022-12-19T04:09:28.641Z,1021.51
2022-12-19T04:10:28.632Z,1021.46
2022-12-19T04:11:28.649Z,1021.54
2022-12-19T04:12:28.579Z,1021.45
2022-12-19T04:13:28.586Z,1021.45
2022-12-19T04:14:28.600Z,1021.46
2022-12-19T04:15:28.575Z,1021.47
2022-12-19T04:16:28.544Z,1021.51
2022-12-19T04:17:28.557Z,1021.49
2022-12-19T04:18:28.510Z,1021.53
2022-12-19T04:19:28.510Z,1021.43
2022-12-19T04:20:28.492Z,1021.47
2022-12-19T04:21:28.503Z,1021.38
2022-12-19T04:22:28.464Z,1021.34
2022-12-19T04:23:28.469Z,1021.28
2022-12-19T04:24:28.427Z,1021.29
2022-12-19T04:25:29.638Z,1021.24
2022-12-19T04:26:28.428Z,1021.26
2022-12-19T04:27:28.402Z,1021.26
2022-12-19T04:28:28.398Z,1021.27
2022-12-19T04:29:28.380Z,1021.23
2022-12-19T04:30:28.362Z,1021.30
2022-12-19T04:31:28.541Z,1021.26
2022-12-19T04:32:28.352Z,1021.29
2022-12-19T04:33:28.331Z,1021.26
2022-12-19T04:34:28.312Z,1021.24
2022-12-19T04:35:28.329Z,1021.20
2022-12-19T04:36:28.291Z,1021.24
2022-12-19T04:37:28.289Z,1021.40
2022-12-19T04:38:28.271Z,1021.27
2022-12-19T04:39:28.263Z,1021.38
2022-12-19T04:40:28.230Z,1021.41
2022-12-19T04:41:28.232Z,1021.38
2022-12-19T04:42:28.208Z,1021.36
2022-12-19T04:43:28.208Z,1021.40
2022-12-19T04:44:28.179Z,1021.33
2022-12-19T04:45:28.189Z,1021.43
2022-12-19T04:46:28.233Z,1021.44
2022-12-19T04:47:28.155Z,1021.41
2022-12-19T04:48:28.154Z,1021.39
2022-12-19T04:49:28.137Z,1021.38
2022-12-19T04:50:28.110Z,1021.36
2022-12-19T04:51:28.107Z,1021.31
2022-12-19T04:52:28.089Z,1021.35
2022-12-19T04:53:28.079Z,1021.39
2022-12-19T04:54:28.088Z,1021.29
2022-12-19T04:55:28.068Z,1021.21
2022-12-19T04:56:28.035Z,1021.26
2022-12-19T04:57:28.026Z,1021.14
2022-12-19T04:58:28.027Z,1021.14
2022-12-19T04:59:28.006Z,1021.08
2022-12-19T05:00:28.038Z,1021.14
2022-12-19T05:01:28.079Z,1021.05
2022-12-19T05:02:28.140Z,1021.09
2022-12-19T05:03:28.009Z,1021.05
2022-12-19T05:04:27.938Z,1021.03
2022-12-19T05:05:27.929Z,1020.92
2022-12-19T05:06:27.907Z,1020.91
2022-12-19T05:07:27.896Z,1020.99
2022-12-19T05:08:27.915Z,1020.93
2022-12-19T05:09:27.926Z,1020.87
2022-12-19T05:10:27.880Z,1020.98
2022-12-19T05:11:27.897Z,1020.92
2022-12-19T05:12:27.835Z,1020.93
2022-12-19T05:13:27.836Z,1020.90
2022-12-19T05:14:27.811Z,1020.91
2022-12-19T05:15:27.812Z,1020.97
2022-12-19T05:16:27.790Z,1020.98
2022-12-19T05:17:27.785Z,1021.08
2022-12-19T05:18:27.783Z,1021.09
2022-12-19T05:19:27.765Z,1021.09
2022-12-19T05:20:27.733Z,1021.08
2022-12-19T05:21:27.732Z,1021.01
2022-12-19T05:22:27.703Z,1021.04
2022-12-19T05:23:27.711Z,1021.07
2022-12-19T05:24:27.691Z,1021.01
2022-12-19T05:25:27.674Z,1021.08
2022-12-19T05:26:27.646Z,1021.05
2022-12-19T05:27:27.652Z,1020.94
2022-12-19T05:28:27.645Z,1020.98
2022-12-19T05:29:27.634Z,1020.91
2022-12-19T05:30:27.630Z,1020.94
2022-12-19T05:31:27.679Z,1020.88
2022-12-19T05:32:27.582Z,1020.89
2022-12-19T05:33:35.275Z,1020.88
2022-12-19T05:34:27.557Z,1020.90
2022-12-19T05:35:27.554Z,1020.87
2022-12-19T05:36:32.281Z,1020.91
2022-12-19T05:37:28.578Z,1020.95
2022-12-19T05:38:27.539Z,1020.86
2022-12-19T05:39:27.515Z,1020.91
2022-12-19T05:40:27.498Z,1020.86
2022-12-19T05:41:27.580Z,1020.82
2022-12-19T05:42:27.476Z,1020.83
2022-12-19T05:43:27.494Z,1020.79
2022-12-19T05:44:27.447Z,1020.71
2022-12-19T05:45:27.448Z,1020.72
2022-12-19T05:46:27.575Z,1020.70
2022-12-19T05:47:27.426Z,1020.67
2022-12-19T05:48:27.434Z,1020.70
2022-12-19T05:49:27.411Z,1020.68
2022-12-19T05:50:27.374Z,1020.68
2022-12-19T05:51:27.425Z,1020.70
2022-12-19T05:52:27.362Z,1020.69
2022-12-19T05:53:27.356Z,1020.72
2022-12-19T05:54:27.325Z,1020.66
2022-12-19T05:55:27.320Z,1020.67
2022-12-19T05:56:27.298Z,1020.68
2022-12-19T05:57:27.292Z,1020.65
2022-12-19T05:58:27.309Z,1020.63
2022-12-19T05:59:27.289Z,1020.60
2022-12-19T06:00:27.252Z,1020.57
2022-12-19T06:01:27.321Z,1020.61
2022-12-19T06:02:27.296Z,1020.54
2022-12-19T06:03:27.288Z,1020.53
2022-12-19T06:04:27.232Z,1020.50
2022-12-19T06:05:27.192Z,1020.53
2022-12-19T06:06:27.181Z,1020.49
2022-12-19T06:07:27.168Z,1020.52
2022-12-19T06:08:27.150Z,1020.47
2022-12-19T06:09:27.169Z,1020.47
2022-12-19T06:10:27.131Z,1020.48
2022-12-19T06:11:27.149Z,1020.45
2022-12-19T06:12:27.100Z,1020.37
2022-12-19T06:13:27.099Z,1020.43
2022-12-19T06:14:27.106Z,1020.52
2022-12-19T06:15:27.090Z,1020.48
2022-12-19T06:16:27.108Z,1020.40
2022-12-19T06:17:27.048Z,1020.43
2022-12-19T06:18:27.029Z,1020.46
2022-12-19T06:19:27.010Z,1020.36
2022-12-19T06:20:27.008Z,1020.37
2022-12-19T06:21:27.009Z,1020.29
2022-12-19T06:22:26.979Z,1020.26
2022-12-19T06:23:26.974Z,1020.31
2022-12-19T06:24:26.966Z,1020.31
2022-12-19T06:25:26.939Z,1020.26
2022-12-19T06:26:26.997Z,1020.28
2022-12-19T06:27:26.937Z,1020.27
2022-12-19T06:28:26.932Z,1020.32
2022-12-19T06:29:27.023Z,1020.26
2022-12-19T06:30:26.937Z,1020.24
2022-12-19T06:31:27.020Z,1020.30
2022-12-19T06:32:26.877Z,1020.30
2022-12-19T06:33:26.876Z,1020.09
2022-12-19T06:34:55.093Z,1020.16
2022-12-19T06:35:27.815Z,1020.19
2022-12-19T06:36:26.805Z,1020.20
2022-12-19T06:37:26.807Z,1020.11
2022-12-19T06:38:26.799Z,1020.13
2022-12-19T06:39:26.789Z,1020.14
2022-12-19T06:40:26.766Z,1020.13
2022-12-19T06:41:26.749Z,1020.11
2022-12-19T06:42:26.760Z,1020.12
2022-12-19T06:43:26.717Z,1020.15
2022-12-19T06:44:26.717Z,1020.17
2022-12-19T06:45:26.764Z,1020.13
2022-12-19T06:46:26.717Z,1020.11
2022-12-19T06:47:26.663Z,1020.11
2022-12-19T06:48:26.681Z,1020.14
2022-12-19T06:49:26.636Z,1020.05
2022-12-19T06:50:26.635Z,1020.02
2022-12-19T06:51:26.618Z,1020.05
2022-12-19T06:52:26.605Z,1020.00
2022-12-19T06:53:26.593Z,1019.96
2022-12-19T06:54:26.609Z,1020.01
2022-12-19T06:55:26.569Z,1020.06
2022-12-19T06:56:26.623Z,1020.00
2022-12-19T06:57:26.578Z,1020.08
2022-12-19T06:58:26.565Z,1020.03
2022-12-19T06:59:26.543Z,1020.08
2022-12-19T07:00:26.526Z,1020.04
2022-12-19T07:01:26.580Z,1020.08
2022-12-19T07:02:26.629Z,1020.08
2022-12-19T07:03:26.464Z,1020.10
2022-12-19T07:04:26.520Z,1020.17
2022-12-19T07:05:26.441Z,1020.16
2022-12-19T07:06:26.476Z,1020.19
2022-12-19T07:07:26.413Z,1020.22
2022-12-19T07:08:26.425Z,1020.11
2022-12-19T07:09:26.412Z,1020.31
2022-12-19T07:10:26.473Z,1020.26
2022-12-19T07:11:26.368Z,1020.24
2022-12-19T07:12:26.363Z,1020.31
2022-12-19T07:13:26.356Z,1020.29
2022-12-19T07:14:27.166Z,1020.26
2022-12-19T07:15:26.352Z,1020.18
2022-12-19T07:16:26.363Z,1020.30
2022-12-19T07:17:26.338Z,1020.32
2022-12-19T07:18:26.284Z,1020.27
2022-12-19T07:19:26.263Z,1020.16
2022-12-19T07:20:26.285Z,1020.19
2022-12-19T07:21:26.244Z,1020.20
2022-12-19T07:22:26.402Z,1020.14
2022-12-19T07:23:26.221Z,1020.16
2022-12-19T07:24:26.225Z,1020.15
2022-12-19T07:25:26.218Z,1020.18
2022-12-19T07:26:26.191Z,1020.08
2022-12-19T07:27:31.741Z,1020.13
2022-12-19T07:28:27.172Z,1020.08
2022-12-19T07:29:26.151Z,1020.04
2022-12-19T07:30:26.203Z,1020.11
2022-12-19T07:31:26.197Z,1020.06
2022-12-19T07:32:26.126Z,1020.12
2022-12-19T07:33:26.091Z,1020.11
2022-12-19T07:34:26.101Z,1020.11
2022-12-19T07:35:26.073Z,1020.10
2022-12-19T07:36:26.091Z,1020.08
2022-12-19T07:37:26.051Z,1020.06
2022-12-19T07:38:26.041Z,1020.09
2022-12-19T07:39:26.034Z,1020.14
2022-12-19T07:40:26.030Z,1020.17
2022-12-19T07:41:26.011Z,1020.17
2022-12-19T07:42:30.767Z,1020.13
2022-12-19T07:43:26.979Z,1020.15
2022-12-19T07:44:25.967Z,1020.07
2022-12-19T07:45:26.015Z,1020.10
2022-12-19T07:46:25.939Z,1020.15
2022-12-19T07:47:25.941Z,1020.08
2022-12-19T07:48:25.935Z,1020.12
2022-12-19T07:49:25.916Z,1020.10
2022-12-19T07:50:25.909Z,1020.11
2022-12-19T07:51:25.881Z,1020.09
2022-12-19T07:52:25.871Z,1020.06
2022-12-19T07:53:25.861Z,1020.04
2022-12-19T07:54:25.854Z,1020.06
2022-12-19T07:55:25.822Z,1020.04
2022-12-19T07:56:25.823Z,1020.03
2022-12-19T07:57:25.814Z,1020.00
2022-12-19T07:58:25.801Z,1020.06
2022-12-19T07:59:30.340Z,1019.99
2022-12-19T08:00:26.777Z,1020.00
2022-12-19T08:01:28.268Z,1019.96
2022-12-19T08:02:25.851Z,1020.04
2022-12-19T08:03:25.794Z,1020.00
2022-12-19T08:04:25.741Z,1020.00
2022-12-19T08:05:26.233Z,1019.96
2022-12-19T08:06:25.693Z,1020.00
2022-12-19T08:07:25.684Z,1019.99
2022-12-19T08:08:25.676Z,1019.97
2022-12-19T08:09:25.662Z,1019.98
2022-12-19T08:10:25.661Z,1019.97
2022-12-19T08:11:25.647Z,1020.03
2022-12-19T08:12:25.637Z,1019.97
2022-12-19T08:13:25.619Z,1019.97
2022-12-19T08:14:25.612Z,1019.96
2022-12-19T08:15:25.593Z,1019.91
2022-12-19T08:16:25.598Z,1019.86
2022-12-19T08:17:25.598Z,1019.87
2022-12-19T08:18:25.565Z,1019.89
2022-12-19T08:19:27.565Z,1019.89
2022-12-19T08:20:25.541Z,1019.83
2022-12-19T08:21:25.505Z,1019.80
2022-12-19T08:22:25.515Z,1019.79
2022-12-19T08:23:25.488Z,1019.81
2022-12-19T08:24:25.482Z,1019.76
2022-12-19T08:25:25.460Z,1019.77
2022-12-19T08:26:25.615Z,1019.66
2022-12-19T08:27:25.459Z,1019.62
2022-12-19T08:28:25.454Z,1019.71
2022-12-19T08:29:25.406Z,1019.76
2022-12-19T08:30:25.412Z,1019.69
2022-12-19T08:31:25.568Z,1019.60
2022-12-19T08:32:25.381Z,1019.49
2022-12-19T08:33:25.374Z,1019.51
2022-12-19T08:34:25.388Z,1019.57
2022-12-19T08:35:25.330Z,1019.59
2022-12-19T08:36:25.331Z,1019.53
2022-12-19T08:37:25.321Z,1019.54
2022-12-19T08:38:25.325Z,1019.53
2022-12-19T08:39:25.291Z,1019.50
2022-12-19T08:40:25.272Z,1019.47
2022-12-19T08:41:25.250Z,1019.54
2022-12-19T08:42:25.251Z,1019.51
2022-12-19T08:43:25.252Z,1019.54
2022-12-19T08:44:25.229Z,1019.56
2022-12-19T08:45:25.193Z,1019.55
2022-12-19T08:46:25.292Z,1019.56
2022-12-19T08:47:25.202Z,1019.50
2022-12-19T08:48:25.214Z,1019.48
2022-12-19T08:49:25.160Z,1019.56
2022-12-19T08:50:25.370Z,1019.51
2022-12-19T08:51:25.131Z,1019.45
2022-12-19T08:52:25.141Z,1019.49
2022-12-19T08:53:26.670Z,1019.46
2022-12-19T08:54:25.122Z,1019.45
2022-12-19T08:55:25.089Z,1019.41
2022-12-19T08:56:25.104Z,1019.49
2022-12-19T08:57:25.069Z,1019.41
2022-12-19T08:58:25.045Z,1019.39
2022-12-19T08:59:30.999Z,1019.44
2022-12-19T09:00:26.019Z,1019.50
2022-12-19T09:01:25.053Z,1019.39
2022-12-19T09:02:25.323Z,1019.32
2022-12-19T09:03:25.130Z,1019.23
2022-12-19T09:05:58.725Z,1019.20
2022-12-19T09:06:05.189Z,1019.17
2022-12-19T09:06:26.040Z,1019.20
2022-12-19T09:07:24.940Z,1019.08
2022-12-19T09:08:24.939Z,1019.18
2022-12-19T09:09:24.922Z,1019.25
2022-12-19T09:10:24.922Z,1019.28
2022-12-19T09:11:24.880Z,1019.10
2022-12-19T09:12:24.874Z,1019.14
2022-12-19T09:13:24.907Z,1019.03
2022-12-19T09:14:24.850Z,1019.10
2022-12-19T09:15:24.838Z,1019.12
2022-12-19T09:16:24.910Z,1019.12
2022-12-19T09:17:24.836Z,1019.08
2022-12-19T09:18:24.819Z,1019.04
2022-12-19T09:19:24.777Z,1019.03
2022-12-19T09:20:24.804Z,1018.95
2022-12-19T09:21:24.769Z,1019.03
2022-12-19T09:22:27.756Z,1019.03
2022-12-19T09:23:24.735Z,1018.99
2022-12-19T09:24:24.732Z,1018.90
2022-12-19T09:25:24.728Z,1018.97
2022-12-19T09:26:24.717Z,1018.98
2022-12-19T09:27:24.682Z,1018.94
2022-12-19T09:28:27.720Z,1018.94
2022-12-19T09:29:24.662Z,1018.84
2022-12-19T09:30:24.687Z,1018.82
2022-12-19T09:31:24.657Z,1018.79
2022-12-19T09:32:24.649Z,1018.80
2022-12-19T09:33:24.609Z,1018.80
2022-12-19T09:34:29.973Z,1018.78
2022-12-19T09:35:30.074Z,1018.75
2022-12-19T09:36:25.594Z,1018.67
2022-12-19T09:37:24.552Z,1018.66
2022-12-19T09:38:24.548Z,1018.58
2022-12-19T09:39:24.556Z,1018.59
2022-12-19T09:40:24.545Z,1018.51
2022-12-19T09:41:24.536Z,1018.44
2022-12-19T09:42:24.513Z,1018.39
2022-12-19T09:43:24.498Z,1018.38
2022-12-19T09:44:24.491Z,1018.42
2022-12-19T09:45:31.216Z,1018.39
2022-12-19T09:46:25.501Z,1018.40
2022-12-19T09:47:24.445Z,1018.43
2022-12-19T09:48:24.969Z,1018.43
2022-12-19T09:49:24.415Z,1018.49
2022-12-19T09:50:24.405Z,1018.33
2022-12-19T09:51:24.376Z,1018.37
2022-12-19T09:52:24.708Z,1018.39
2022-12-19T09:53:24.399Z,1018.41
2022-12-19T09:54:24.345Z,1018.40
2022-12-19T09:55:24.347Z,1018.36
2022-12-19T09:56:24.353Z,1018.37
2022-12-19T09:57:24.318Z,1018.34
2022-12-19T09:58:24.308Z,1018.30
2022-12-19T09:59:28.291Z,1018.24
2022-12-19T10:00:25.338Z,1018.25
2022-12-19T10:01:24.348Z,1018.23
2022-12-19T10:02:24.438Z,1018.19
2022-12-19T10:03:24.429Z,1018.17
2022-12-19T10:04:24.262Z,1018.30
2022-12-19T10:06:47.822Z,1018.22
2022-12-19T10:07:12.835Z,1018.27
2022-12-19T10:07:48.454Z,1018.19
2022-12-19T10:08:25.167Z,1018.22
2022-12-19T10:11:53.346Z,1018.24
2022-12-19T10:12:37.427Z,1018.21
2022-12-19T10:12:38.034Z,1018.16
2022-12-19T10:12:45.062Z,1018.18
2022-12-19T10:13:25.097Z,1018.25
2022-12-19T10:14:24.115Z,1018.02
2022-12-19T10:15:24.089Z,1018.06
2022-12-19T10:16:24.114Z,1018.12
2022-12-19T10:17:25.250Z,1017.97
2022-12-19T10:18:24.070Z,1018.05
2022-12-19T10:19:24.048Z,1017.95
2022-12-19T10:20:24.031Z,1017.96
2022-12-19T10:21:42.917Z,1017.88
2022-12-19T10:22:25.007Z,1017.90
2022-12-19T10:23:23.996Z,1017.86
2022-12-19T10:24:24.055Z,1017.95
2022-12-19T10:25:26.829Z,1017.92
2022-12-19T10:26:23.950Z,1017.88
2022-12-19T10:27:24.965Z,1017.89
2022-12-19T10:28:23.937Z,1017.84
2022-12-19T10:29:23.951Z,1017.90
2022-12-19T10:30:23.941Z,1017.84
2022-12-19T10:31:24.052Z,1017.79
2022-12-19T10:32:23.890Z,1017.82
2022-12-19T10:33:23.858Z,1017.75
2022-12-19T10:34:23.878Z,1017.84
2022-12-19T10:35:23.858Z,1017.81
2022-12-19T10:36:41.933Z,1017.75
2022-12-19T10:37:31.486Z,1017.76
2022-12-19T10:38:24.836Z,1017.76
2022-12-19T10:39:23.803Z,1017.68
2022-12-19T10:40:27.545Z,1017.71
2022-12-19T10:41:24.788Z,1017.68
2022-12-19T10:42:23.762Z,1017.65
2022-12-19T10:43:32.745Z,1017.53
2022-12-19T10:44:24.722Z,1017.51
2022-12-19T10:45:23.770Z,1017.53
2022-12-19T10:46:23.722Z,1017.44
2022-12-19T10:47:23.725Z,1017.49
2022-12-19T10:48:27.740Z,1017.48
2022-12-19T10:49:24.688Z,1017.47
2022-12-19T10:50:23.650Z,1017.45
2022-12-19T10:51:23.697Z,1017.39
2022-12-19T10:52:23.628Z,1017.45
2022-12-19T10:53:23.652Z,1017.36
2022-12-19T10:54:27.555Z,1017.35
2022-12-19T10:55:24.632Z,1017.39
2022-12-19T10:56:23.595Z,1017.35
2022-12-19T10:57:23.570Z,1017.35
2022-12-19T10:58:23.555Z,1017.25
2022-12-19T10:59:23.560Z,1017.28
2022-12-19T11:00:23.592Z,1017.27
2022-12-19T11:01:23.734Z,1017.25
2022-12-19T11:02:23.535Z,1017.17
2022-12-19T11:03:23.837Z,1017.20
2022-12-19T11:04:23.553Z,1017.22
2022-12-19T11:05:23.546Z,1017.21
2022-12-19T11:06:23.456Z,1017.20
2022-12-19T11:07:23.454Z,1017.19
2022-12-19T11:08:23.430Z,1017.09
2022-12-19T11:09:23.434Z,1017.13
2022-12-19T11:11:57.592Z,1017.10
2022-12-19T11:12:35.580Z,1017.02
2022-12-19T11:16:05.502Z,1016.93
2022-12-19T11:16:35.598Z,1017.03
2022-12-19T11:18:56.686Z,1017.01
2022-12-19T11:19:41.557Z,1017.00
2022-12-19T11:19:43.502Z,1016.88
2022-12-19T11:21:37.127Z,1016.92
2022-12-19T11:25:58.132Z,1016.85
2022-12-19T11:27:25.471Z,1016.95
2022-12-19T11:29:36.450Z,1016.95
2022-12-19T11:29:40.000Z,1016.98
2022-12-19T11:29:42.762Z,1016.91
2022-12-19T11:30:35.710Z,1016.80
2022-12-19T11:30:41.123Z,1016.92
2022-12-19T11:30:45.317Z,1016.85
2022-12-19T11:30:46.600Z,1016.79
2022-12-19T11:30:46.941Z,1016.99
2022-12-19T11:30:49.025Z,1016.98
2022-12-19T11:32:39.764Z,1016.74
2022-12-19T11:34:34.332Z,1016.71
2022-12-19T11:35:36.498Z,1016.65
2022-12-19T11:36:34.319Z,1016.65
2022-12-19T11:37:34.274Z,1016.67
2022-12-19T11:38:34.289Z,1016.66
2022-12-19T11:39:34.374Z,1016.59
2022-12-19T11:40:34.276Z,1016.69
2022-12-19T11:41:34.248Z,1016.61
2022-12-19T11:42:34.250Z,1016.55
2022-12-19T11:43:49.576Z,1016.61
2022-12-19T11:44:35.317Z,1016.56
2022-12-19T11:45:34.183Z,1016.50
2022-12-19T11:46:34.167Z,1016.40
2022-12-19T11:47:34.161Z,1016.53
2022-12-19T11:48:34.160Z,1016.44
2022-12-19T11:49:34.195Z,1016.41
2022-12-19T11:50:34.134Z,1016.39
2022-12-19T11:51:34.123Z,1016.33
2022-12-19T11:53:35.097Z,1016.27
2022-12-19T11:54:34.071Z,1016.28
2022-12-19T11:55:34.082Z,1016.38
2022-12-19T11:56:34.047Z,1016.31
2022-12-19T11:57:34.032Z,1016.29
2022-12-19T11:58:34.010Z,1016.28
2022-12-19T11:59:34.011Z,1016.30
2022-12-19T12:00:34.004Z,1016.25
2022-12-19T12:01:34.044Z,1016.25
2022-12-19T12:02:33.961Z,1016.36
2022-12-19T12:03:33.992Z,1016.26
2022-12-19T12:04:34.037Z,1016.21
2022-12-19T12:05:33.948Z,1016.29
2022-12-19T12:06:33.993Z,1016.30
2022-12-19T12:08:37.978Z,1016.35
2022-12-19T12:10:27.948Z,1016.33
2022-12-19T12:15:04.839Z,1016.32
2022-12-19T12:17:10.031Z,1016.30